createdAt,value
2019-02-14T00:00:04.915Z,6.10
2019-02-14T00:04:11.382Z,6.67
2019-02-14T00:08:16.276Z,7.30
2019-02-14T00:12:21.534Z,9.33
2019-02-14T00:16:26.413Z,8.57
2019-02-14T00:20:31.305Z,7.30
2019-02-14T00:24:36.196Z,6.60
2019-02-14T00:28:41.096Z,5.87
2019-02-14T00:32:46.005Z,6.43
2019-02-14T00:36:50.903Z,7.40
2019-02-14T00:40:55.785Z,7.10
2019-02-14T00:45:00.684Z,6.77
2019-02-14T00:49:05.581Z,6.57
2019-02-14T00:53:10.484Z,6.37
2019-02-14T00:57:16.343Z,9.23
2019-02-14T01:01:21.249Z,10.03
2019-02-14T01:05:33.487Z,7.03
2019-02-14T01:09:32.737Z,6.50
2019-02-14T01:13:37.631Z,5.63
2019-02-14T01:17:42.525Z,5.93
2019-02-14T01:21:47.416Z,5.90
2019-02-14T01:25:52.312Z,6.80
2019-02-14T01:29:57.204Z,6.60
2019-02-14T01:34:02.100Z,7.87
2019-02-14T01:38:07.000Z,7.67
2019-02-14T01:42:11.883Z,7.00
2019-02-14T01:46:16.783Z,6.40
2019-02-14T01:50:21.688Z,5.63
2019-02-14T01:54:26.586Z,6.30
2019-02-14T01:58:31.476Z,5.87
2019-02-14T02:02:36.370Z,6.40
2019-02-14T02:06:41.258Z,5.40
2019-02-14T02:10:46.146Z,6.50
2019-02-14T02:14:51.037Z,7.77
2019-02-14T02:18:55.935Z,6.90
2019-02-14T02:23:01.807Z,6.40
2019-02-14T02:27:06.691Z,6.40
2019-02-14T02:31:11.587Z,6.00
2019-02-14T02:35:16.481Z,5.50
2019-02-14T02:39:21.376Z,5.70
2019-02-14T02:43:26.340Z,5.33
2019-02-14T02:47:31.402Z,5.27
2019-02-14T02:51:36.340Z,5.67
2019-02-14T02:55:41.182Z,5.17
2019-02-14T02:59:46.087Z,5.00
2019-02-14T03:03:50.974Z,3.90
2019-02-14T03:07:55.865Z,4.87
2019-02-14T03:12:00.750Z,4.57
2019-02-14T03:16:05.636Z,3.90
2019-02-14T03:20:12.331Z,3.57
2019-02-14T03:24:17.224Z,4.00
2019-02-14T03:28:22.102Z,4.10
2019-02-14T03:32:26.989Z,4.00
2019-02-14T03:36:31.877Z,3.77
2019-02-14T03:40:36.837Z,4.37
2019-02-14T03:44:41.742Z,4.40
2019-02-14T03:48:46.630Z,4.43
2019-02-14T03:52:51.507Z,3.97
2019-02-14T03:56:56.389Z,3.77
2019-02-14T04:01:01.279Z,4.37
2019-02-14T04:05:07.103Z,3.60
2019-02-14T04:09:12.012Z,3.43
2019-02-14T04:13:16.879Z,3.50
2019-02-14T04:17:21.766Z,3.70
2019-02-14T04:21:26.651Z,5.13
2019-02-14T04:25:31.539Z,5.27
2019-02-14T04:29:36.426Z,6.37
2019-02-14T04:33:41.315Z,5.57
2019-02-14T04:37:46.207Z,5.10
2019-02-14T04:41:51.105Z,5.63
2019-02-14T04:45:56.009Z,5.10
2019-02-14T04:50:00.917Z,5.27
2019-02-14T04:54:05.817Z,5.00
2019-02-14T04:58:10.703Z,4.90
2019-02-14T05:02:15.605Z,5.23
2019-02-14T05:06:20.513Z,4.87
2019-02-14T05:10:25.406Z,5.13
2019-02-14T05:14:30.310Z,4.27
2019-02-14T05:18:35.197Z,5.03
2019-02-14T05:22:40.092Z,4.37
2019-02-14T05:26:44.989Z,6.57
2019-02-14T05:30:49.888Z,5.77
2019-02-14T05:34:54.785Z,5.87
2019-02-14T05:38:59.677Z,5.17
2019-02-14T05:43:04.587Z,3.70
2019-02-14T05:47:09.483Z,3.87
2019-02-14T05:51:14.394Z,5.20
2019-02-14T05:55:19.282Z,5.07
2019-02-14T05:59:24.182Z,5.13
2019-02-14T06:03:29.067Z,4.60
2019-02-14T06:07:33.968Z,5.27
2019-02-14T06:11:38.868Z,4.73
2019-02-14T06:15:43.778Z,4.50
2019-02-14T06:19:48.674Z,4.10
2019-02-14T06:23:53.564Z,4.63
2019-02-14T06:27:58.477Z,4.93
2019-02-14T06:32:03.363Z,4.80
2019-02-14T06:36:08.275Z,4.80
2019-02-14T06:40:14.715Z,4.83
2019-02-14T06:44:19.618Z,4.63
2019-02-14T06:48:24.508Z,4.47
2019-02-14T06:52:29.400Z,4.70
2019-02-14T06:56:34.294Z,3.63
2019-02-14T07:00:39.188Z,4.00
2019-02-14T07:04:44.089Z,4.10
2019-02-14T07:08:48.980Z,4.10
2019-02-14T07:12:53.876Z,4.77
2019-02-14T07:16:58.776Z,4.57
2019-02-14T07:21:03.668Z,5.63
2019-02-14T07:25:10.788Z,4.63
2019-02-14T07:29:15.682Z,5.57
2019-02-14T07:33:20.622Z,6.57
2019-02-14T07:37:27.169Z,5.90
2019-02-14T07:41:32.062Z,4.77
2019-02-14T07:45:36.973Z,4.77
2019-02-14T07:49:41.855Z,4.80
2019-02-14T07:53:46.767Z,5.33
2019-02-14T07:57:51.665Z,5.67
2019-02-14T08:01:56.576Z,5.57
2019-02-14T08:06:01.477Z,5.07
2019-02-14T08:10:11.498Z,5.80
2019-02-14T08:14:16.417Z,7.30
2019-02-14T08:18:21.315Z,8.70
2019-02-14T08:22:26.225Z,16.17
2019-02-14T08:26:31.132Z,9.90
2019-02-14T08:30:36.058Z,10.57
2019-02-14T08:34:41.783Z,8.40
2019-02-14T08:38:46.694Z,8.57
2019-02-14T08:42:51.602Z,9.00
2019-02-14T08:46:56.501Z,9.37
2019-02-14T08:51:01.395Z,8.90
2019-02-14T08:55:09.919Z,9.93
2019-02-14T08:59:14.619Z,7.73
2019-02-14T09:03:19.517Z,7.20
2019-02-14T09:07:24.404Z,8.53
2019-02-14T09:11:29.300Z,7.83
2019-02-14T09:15:36.281Z,9.03
2019-02-14T09:19:41.176Z,9.47
2019-02-14T09:23:46.084Z,7.13
2019-02-14T09:27:50.975Z,7.03
2019-02-14T09:31:55.862Z,7.97
2019-02-14T09:36:00.755Z,6.80
2019-02-14T09:40:08.760Z,10.33
2019-02-14T09:44:13.664Z,7.67
2019-02-14T09:48:18.559Z,6.20
2019-02-14T09:52:23.448Z,6.97
2019-02-14T09:56:28.362Z,6.37
2019-02-14T10:00:33.239Z,7.30
2019-02-14T10:04:38.137Z,6.90
2019-02-14T10:08:43.054Z,7.53
2019-02-14T10:12:47.928Z,7.07
2019-02-14T10:16:53.896Z,8.43
2019-02-14T10:20:58.802Z,8.03
2019-02-14T10:25:04.568Z,7.77
2019-02-14T10:29:09.466Z,7.07
2019-02-14T10:33:14.356Z,5.43
2019-02-14T10:37:19.252Z,4.83
2019-02-14T10:41:24.148Z,5.67
2019-02-14T10:45:29.040Z,5.47
2019-02-14T10:49:33.944Z,5.40
2019-02-14T10:53:38.822Z,5.33
2019-02-14T10:57:44.091Z,5.83
2019-02-14T11:01:49.959Z,6.17
2019-02-14T11:05:54.853Z,5.97
2019-02-14T11:09:59.766Z,11.43
2019-02-14T11:14:04.661Z,13.63
2019-02-14T11:18:09.561Z,10.33
2019-02-14T11:22:14.456Z,9.57
2019-02-14T11:26:19.359Z,8.93
2019-02-14T11:30:24.921Z,8.40
2019-02-14T11:34:29.812Z,8.97
2019-02-14T11:38:40.436Z,7.60
2019-02-14T11:42:41.315Z,5.80
2019-02-14T11:46:51.478Z,5.90
2019-02-14T11:50:52.819Z,5.40
2019-02-14T11:54:57.722Z,4.57
2019-02-14T11:59:02.614Z,4.27
2019-02-14T12:03:07.513Z,4.10
2019-02-14T12:07:12.415Z,4.90
2019-02-14T12:11:17.319Z,3.80
2019-02-14T12:15:23.609Z,6.00
2019-02-14T12:19:28.564Z,5.03
2019-02-14T12:23:33.470Z,4.43
2019-02-14T12:27:38.379Z,5.47
2019-02-14T12:31:43.301Z,5.97
2019-02-14T12:35:48.195Z,6.10
2019-02-14T12:39:53.097Z,5.80
2019-02-14T12:43:58.001Z,6.30
2019-02-14T12:48:02.908Z,6.20
2019-02-14T12:52:07.798Z,7.57
2019-02-14T12:56:12.703Z,6.50
2019-02-14T13:00:24.961Z,6.03
2019-02-14T13:04:29.802Z,5.93
2019-02-14T13:08:34.702Z,5.53
2019-02-14T13:12:39.633Z,6.13
2019-02-14T13:16:44.504Z,6.87
2019-02-14T13:20:49.414Z,6.77
2019-02-14T13:24:54.318Z,6.63
2019-02-14T13:28:59.225Z,6.23
2019-02-14T13:33:04.304Z,6.17
2019-02-14T13:37:09.477Z,6.60
2019-02-14T13:41:14.376Z,7.40
2019-02-14T13:45:22.077Z,7.67
2019-02-14T13:49:26.933Z,7.07
2019-02-14T13:53:31.849Z,6.67
2019-02-14T13:57:36.735Z,6.87
2019-02-14T14:01:41.714Z,8.13
2019-02-14T14:05:46.640Z,7.93
2019-02-14T14:09:51.539Z,6.07
2019-02-14T14:13:56.445Z,6.10
2019-02-14T14:18:01.347Z,6.37
2019-02-14T14:22:06.245Z,6.27
2019-02-14T14:26:11.153Z,6.87
2019-02-14T14:30:16.083Z,7.07
2019-02-14T14:34:20.977Z,7.10
2019-02-14T14:38:25.877Z,6.83
2019-02-14T14:42:41.179Z,7.20
2019-02-14T14:46:46.101Z,6.80
2019-02-14T14:50:50.997Z,6.23
2019-02-14T14:54:55.896Z,6.83
2019-02-14T14:59:00.793Z,5.63
2019-02-14T15:03:05.701Z,6.40
2019-02-14T15:07:10.609Z,6.43
2019-02-14T15:11:15.515Z,7.90
2019-02-14T15:15:20.423Z,4.70
2019-02-14T15:19:25.321Z,5.90
2019-02-14T15:23:30.246Z,8.33
2019-02-14T15:27:35.147Z,6.33
2019-02-14T15:31:40.046Z,5.37
2019-02-14T15:35:45.023Z,5.30
2019-02-14T15:39:49.936Z,5.57
2019-02-14T15:43:54.847Z,5.23
2019-02-14T15:47:59.734Z,6.07
2019-02-14T15:52:05.967Z,7.00
2019-02-14T15:56:11.294Z,7.00
2019-02-14T16:00:16.176Z,7.20
2019-02-14T16:04:21.082Z,8.90
2019-02-14T16:08:25.981Z,8.90
2019-02-14T16:12:31.975Z,7.57
2019-02-14T16:16:36.890Z,14.43
2019-02-14T16:20:42.560Z,11.57
2019-02-14T16:24:48.400Z,8.53
2019-02-14T16:28:53.292Z,8.17
2019-02-14T16:32:58.195Z,10.00
2019-02-14T16:37:03.665Z,11.33
2019-02-14T16:41:08.563Z,10.77
2019-02-14T16:45:13.468Z,15.20
2019-02-14T16:49:18.388Z,13.07
2019-02-14T16:53:23.278Z,12.80
2019-02-14T16:57:28.175Z,8.63
2019-02-14T17:01:33.064Z,9.30
2019-02-14T17:05:37.966Z,9.27
2019-02-14T17:09:42.861Z,9.03
2019-02-14T17:13:47.770Z,8.50
2019-02-14T17:17:52.664Z,8.40
2019-02-14T17:21:57.548Z,8.60
2019-02-14T17:26:02.443Z,9.40
2019-02-14T17:30:09.082Z,9.67
2019-02-14T17:34:13.977Z,10.13
2019-02-14T17:38:18.885Z,11.10
2019-02-14T17:42:23.776Z,11.07
2019-02-14T17:46:28.676Z,10.23
2019-02-14T17:50:33.597Z,11.20
2019-02-14T17:54:38.500Z,10.70
2019-02-14T17:58:43.393Z,9.47
2019-02-14T18:02:48.290Z,8.30
2019-02-14T18:06:53.182Z,18.90
2019-02-14T18:10:58.086Z,14.37
2019-02-14T18:15:03.163Z,12.37
2019-02-14T18:19:08.325Z,11.30
2019-02-14T18:23:13.217Z,9.37
2019-02-14T18:27:18.173Z,10.10
2019-02-14T18:31:23.090Z,13.47
2019-02-14T18:35:28.002Z,13.03
2019-02-14T18:39:32.909Z,10.90
2019-02-14T18:43:37.826Z,11.07
2019-02-14T18:47:42.722Z,11.20
2019-02-14T18:51:47.627Z,18.83
2019-02-14T18:55:52.532Z,10.67
2019-02-14T18:59:57.433Z,11.33
2019-02-14T19:04:02.333Z,11.97
2019-02-14T19:08:07.237Z,11.30
2019-02-14T19:12:12.415Z,9.70
2019-02-14T19:16:17.299Z,9.00
2019-02-14T19:20:22.215Z,10.33
2019-02-14T19:24:27.122Z,9.60
2019-02-14T19:28:32.010Z,10.13
2019-02-14T19:32:36.925Z,10.07
2019-02-14T19:36:41.811Z,10.70
2019-02-14T19:40:46.731Z,9.63
2019-02-14T19:44:51.613Z,9.97
2019-02-14T19:48:56.514Z,9.93
2019-02-14T19:53:01.405Z,8.83
2019-02-14T19:57:06.302Z,8.87
2019-02-14T20:01:11.206Z,10.17
2019-02-14T20:05:16.108Z,9.70
2019-02-14T20:09:21.004Z,10.20
2019-02-14T20:13:25.903Z,10.43
2019-02-14T20:17:31.776Z,12.07
2019-02-14T20:21:36.742Z,25.73
2019-02-14T20:25:41.574Z,18.97
2019-02-14T20:29:46.477Z,14.30
2019-02-14T20:33:51.377Z,13.40
2019-02-14T20:37:56.285Z,13.57
2019-02-14T20:42:01.195Z,14.27
2019-02-14T20:46:06.084Z,12.73
2019-02-14T20:50:13.199Z,13.50
2019-02-14T20:54:18.101Z,13.30
2019-02-14T20:58:23.002Z,11.80
2019-02-14T21:02:27.901Z,11.90
2019-02-14T21:06:32.796Z,12.90
2019-02-14T21:10:37.702Z,12.20
2019-02-14T21:14:42.612Z,12.73
2019-02-14T21:18:49.610Z,11.50
2019-02-14T21:22:54.117Z,11.33
2019-02-14T21:26:59.019Z,11.23
2019-02-14T21:31:03.946Z,10.13
2019-02-14T21:35:08.911Z,8.50
2019-02-14T21:39:13.796Z,10.57
2019-02-14T21:43:18.704Z,7.90
2019-02-14T21:47:23.570Z,8.27
2019-02-14T21:51:28.473Z,8.57
2019-02-14T21:55:33.389Z,17.17
2019-02-14T21:59:38.276Z,16.40
2019-02-14T22:03:43.200Z,13.37
2019-02-14T22:07:49.250Z,12.47
2019-02-14T22:11:54.406Z,12.33
2019-02-14T22:15:59.303Z,11.77
2019-02-14T22:20:06.943Z,13.20
2019-02-14T22:24:12.579Z,12.27
2019-02-14T22:28:18.467Z,13.97
2019-02-14T22:32:24.606Z,13.60
2019-02-14T22:36:29.509Z,17.60
2019-02-14T22:40:34.423Z,16.03
2019-02-14T22:44:39.320Z,13.60
2019-02-14T22:48:44.214Z,14.00
2019-02-14T22:52:49.113Z,13.87
2019-02-14T22:56:54.018Z,14.87
2019-02-14T23:01:00.060Z,13.70
2019-02-14T23:05:08.178Z,15.13
2019-02-14T23:09:13.509Z,14.17
2019-02-14T23:13:18.421Z,14.30
2019-02-14T23:17:23.331Z,15.17
2019-02-14T23:21:28.268Z,14.37
2019-02-14T23:25:33.131Z,14.30
2019-02-14T23:29:38.015Z,14.67
2019-02-14T23:33:42.919Z,13.93
2019-02-14T23:37:47.835Z,13.93
2019-02-14T23:41:52.733Z,16.03
2019-02-14T23:45:57.656Z,13.80
2019-02-14T23:50:02.597Z,14.83
2019-02-14T23:54:07.495Z,13.83
2019-02-14T23:58:12.404Z,15.60
